createdAt,value
2022-10-16T00:01:14.273Z,99126.79
2022-10-16T00:04:20.400Z,99127.27
2022-10-16T00:07:25.266Z,99125.09
2022-10-16T00:10:31.645Z,99124.69
2022-10-16T00:13:36.963Z,99130.84
2022-10-16T00:16:43.825Z,99129.08
2022-10-16T00:19:50.179Z,99134.23
2022-10-16T00:22:56.350Z,99136.38
2022-10-16T00:26:01.411Z,99137.52
2022-10-16T00:29:09.837Z,99138.08
2022-10-16T00:32:15.936Z,99135.91
2022-10-16T00:35:22.024Z,99132.83
2022-10-16T00:38:28.235Z,99137.33
2022-10-16T00:41:33.078Z,99143.15
2022-10-16T00:44:54.869Z,99144.52
2022-10-16T00:48:01.197Z,99150.54
2022-10-16T00:51:09.689Z,99155.71
2022-10-16T00:54:18.606Z,99150.21
2022-10-16T00:57:25.367Z,99149.11
2022-10-16T01:00:31.514Z,99156.30
2022-10-16T01:03:36.981Z,99158.92
2022-10-16T01:06:52.340Z,99163.47
2022-10-16T01:10:10.089Z,99160.80
2022-10-16T01:13:23.714Z,99156.82
2022-10-16T01:16:37.046Z,99162.10
2022-10-16T01:20:03.569Z,99167.07
2022-10-16T01:23:30.084Z,99165.60
2022-10-16T01:26:47.454Z,99161.86
2022-10-16T01:29:58.746Z,99158.49
2022-10-16T01:33:10.854Z,99159.30
2022-10-16T01:36:21.945Z,99160.48
2022-10-16T01:39:33.595Z,99162.30
2022-10-16T01:42:44.182Z,99164.70
2022-10-16T01:45:50.871Z,99162.16
2022-10-16T01:48:57.926Z,99164.41
2022-10-16T01:52:07.907Z,99170.41
2022-10-16T01:55:18.668Z,99167.86
2022-10-16T01:58:26.319Z,99172.48
2022-10-16T02:01:37.586Z,99173.13
2022-10-16T02:04:48.020Z,99177.73
2022-10-16T02:07:54.405Z,99181.40
2022-10-16T02:11:02.711Z,99178.61
2022-10-16T02:14:10.219Z,99182.14
2022-10-16T02:17:18.267Z,99185.05
2022-10-16T02:20:27.947Z,99181.85
2022-10-16T02:23:45.607Z,99185.86
2022-10-16T02:26:55.041Z,99188.15
2022-10-16T02:30:09.860Z,99188.58
2022-10-16T02:33:17.895Z,99191.42
2022-10-16T02:36:24.678Z,99187.46
2022-10-16T02:39:32.271Z,99183.94
2022-10-16T02:42:41.318Z,99182.43
2022-10-16T02:45:47.670Z,99185.80
2022-10-16T02:48:53.903Z,99184.25
2022-10-16T02:51:59.909Z,99184.52
2022-10-16T02:55:06.816Z,99183.55
2022-10-16T02:58:13.556Z,99184.85
2022-10-16T03:01:19.767Z,99182.52
2022-10-16T03:04:25.995Z,99186.33
2022-10-16T03:07:30.537Z,99188.44
2022-10-16T03:10:36.773Z,99191.45
2022-10-16T03:13:42.955Z,99190.55
2022-10-16T03:16:47.485Z,99189.46
2022-10-16T03:19:53.936Z,99190.61
2022-10-16T03:23:00.081Z,99191.77
2022-10-16T03:26:04.433Z,99191.41
2022-10-16T03:29:10.804Z,99193.20
2022-10-16T03:32:16.948Z,99195.52
2022-10-16T03:35:21.482Z,99197.33
2022-10-16T03:38:27.859Z,99198.04
2022-10-16T03:41:33.970Z,99195.56
2022-10-16T03:44:38.458Z,99199.25
2022-10-16T03:47:45.111Z,99203.90
2022-10-16T03:50:52.726Z,99203.86
2022-10-16T03:53:58.918Z,99209.73
2022-10-16T03:57:03.425Z,99211.95
2022-10-16T04:00:11.564Z,99214.65
2022-10-16T04:03:18.430Z,99218.73
2022-10-16T04:06:24.652Z,99220.87
2022-10-16T04:09:29.191Z,99228.65
2022-10-16T04:12:35.420Z,99228.88
2022-10-16T04:15:40.083Z,99229.17
2022-10-16T04:18:46.207Z,99230.77
2022-10-16T04:21:50.671Z,99231.52
2022-10-16T04:24:56.792Z,99238.78
2022-10-16T04:28:01.257Z,99242.66
2022-10-16T04:31:09.310Z,99238.68
2022-10-16T04:34:15.379Z,99239.19
2022-10-16T04:37:21.809Z,99237.16
2022-10-16T04:40:27.936Z,99232.91
2022-10-16T04:43:32.383Z,99234.02
2022-10-16T04:46:38.810Z,99237.30
2022-10-16T04:49:44.879Z,99235.60
2022-10-16T04:52:51.044Z,99234.70
2022-10-16T04:55:55.501Z,99237.96
2022-10-16T04:59:01.615Z,99238.66
2022-10-16T05:02:06.184Z,99242.39
2022-10-16T05:05:12.808Z,99247.86
2022-10-16T05:08:19.418Z,99248.32
2022-10-16T05:11:25.556Z,99252.55
2022-10-16T05:14:30.120Z,99250.78
2022-10-16T05:17:37.351Z,99257.95
2022-10-16T05:20:46.264Z,99267.30
2022-10-16T05:23:52.400Z,99265.20
2022-10-16T05:26:56.944Z,99265.73
2022-10-16T05:30:03.093Z,99266.89
2022-10-16T05:33:07.636Z,99268.56
2022-10-16T05:36:14.083Z,99266.38
2022-10-16T05:39:20.762Z,99267.38
2022-10-16T05:42:26.894Z,99270.67
2022-10-16T05:45:31.453Z,99278.37
2022-10-16T05:48:37.654Z,99276.73
2022-10-16T05:51:43.850Z,99283.34
2022-10-16T05:54:49.913Z,99289.01
2022-10-16T05:57:56.312Z,99292.05
2022-10-16T06:01:04.659Z,99295.29
2022-10-16T06:07:22.809Z,99298.75
2022-10-16T06:10:30.095Z,99302.83
2022-10-16T06:13:36.259Z,99305.03
2022-10-16T06:16:40.784Z,99308.58
2022-10-16T06:19:46.898Z,99312.73
2022-10-16T06:22:51.358Z,99316.57
2022-10-16T06:26:06.139Z,99318.80
2022-10-16T06:29:12.392Z,99321.30
2022-10-16T06:32:18.520Z,99322.27
2022-10-16T06:35:23.079Z,99325.95
2022-10-16T06:38:29.210Z,99328.03
2022-10-16T06:41:33.682Z,99338.40
2022-10-16T06:44:39.805Z,99341.70
2022-10-16T06:47:44.360Z,99344.02
2022-10-16T06:50:59.335Z,99349.19
2022-10-16T06:54:05.740Z,99351.63
2022-10-16T06:57:12.009Z,99352.92
2022-10-16T07:00:18.702Z,99357.23
2022-10-16T07:03:24.812Z,99359.00
2022-10-16T07:06:29.443Z,99368.69
2022-10-16T07:09:35.541Z,99370.00
2022-10-16T07:12:40.030Z,99376.00
2022-10-16T07:15:46.135Z,99383.87
2022-10-16T07:18:55.155Z,99380.77
2022-10-16T07:22:01.873Z,99380.78
2022-10-16T07:25:07.043Z,99382.72
2022-10-16T07:28:13.189Z,99379.14
2022-10-16T07:31:18.182Z,99376.10
2022-10-16T07:34:24.594Z,99376.67
2022-10-16T07:37:30.671Z,99367.39
2022-10-16T07:40:35.200Z,99364.25
2022-10-16T07:43:42.205Z,99367.90
2022-10-16T07:46:48.323Z,99371.52
2022-10-16T07:49:52.762Z,99373.44
2022-10-16T07:52:58.915Z,99371.88
2022-10-16T07:56:07.027Z,99372.76
2022-10-16T07:59:13.188Z,99375.81
2022-10-16T08:02:19.214Z,99380.55
2022-10-16T08:05:23.813Z,99383.52
2022-10-16T08:08:30.514Z,99379.27
2022-10-16T08:11:37.087Z,99379.48
2022-10-16T08:14:45.676Z,99383.33
2022-10-16T08:18:01.046Z,99384.83
2022-10-16T08:21:08.448Z,99388.04
2022-10-16T08:24:14.550Z,99391.72
2022-10-16T08:27:20.643Z,99388.70
2022-10-16T08:30:27.933Z,99395.11
2022-10-16T08:33:35.939Z,99393.13
2022-10-16T08:36:42.422Z,99395.13
2022-10-16T08:39:48.571Z,99397.77
2022-10-16T08:43:14.427Z,99401.47
2022-10-16T08:46:49.715Z,99403.23
2022-10-16T08:50:03.182Z,99399.05
2022-10-16T08:53:16.415Z,99396.97
2022-10-16T08:56:23.087Z,99398.80
2022-10-16T08:59:30.591Z,99400.77
2022-10-16T09:02:40.137Z,99396.55
2022-10-16T09:06:00.216Z,99396.63
2022-10-16T09:09:21.330Z,99395.96
2022-10-16T09:12:34.680Z,99395.25
2022-10-16T09:15:47.828Z,99400.61
2022-10-16T09:19:00.812Z,99403.80
2022-10-16T09:22:16.617Z,99409.81
2022-10-16T09:25:25.276Z,99411.77
2022-10-16T09:28:31.643Z,99412.11
2022-10-16T09:31:40.319Z,99417.22
2022-10-16T09:34:50.061Z,99421.58
2022-10-16T09:37:58.299Z,99423.95
2022-10-16T09:41:13.349Z,99426.98
2022-10-16T09:44:27.354Z,99431.25
2022-10-16T09:47:40.016Z,99430.87
2022-10-16T09:50:46.289Z,99430.00
2022-10-16T09:53:57.360Z,99432.41
2022-10-16T09:57:15.099Z,99432.35
2022-10-16T10:00:22.204Z,99437.91
2022-10-16T10:03:48.794Z,99437.71
2022-10-16T10:06:57.136Z,99437.49
2022-10-16T10:10:05.350Z,99437.78
2022-10-16T10:13:22.325Z,99433.02
2022-10-16T10:16:29.402Z,99430.09
2022-10-16T10:19:43.108Z,99432.45
2022-10-16T10:22:49.836Z,99435.40
2022-10-16T10:26:00.972Z,99439.22
2022-10-16T10:29:15.416Z,99438.09
2022-10-16T10:32:35.703Z,99438.02
2022-10-16T10:35:47.638Z,99439.58
2022-10-16T10:38:57.762Z,99442.91
2022-10-16T10:42:18.471Z,99445.50
2022-10-16T10:45:36.329Z,99445.86
2022-10-16T10:49:08.843Z,99443.75
2022-10-16T10:52:35.704Z,99440.98
2022-10-16T10:55:47.983Z,99441.52
2022-10-16T10:59:09.462Z,99439.29
2022-10-16T11:02:25.729Z,99437.89
2022-10-16T11:05:45.687Z,99436.52
2022-10-16T11:08:58.965Z,99429.91
2022-10-16T11:12:14.053Z,99429.75
2022-10-16T11:15:23.555Z,99432.67
2022-10-16T11:18:41.355Z,99431.93
2022-10-16T11:21:57.019Z,99430.07
2022-10-16T11:25:04.972Z,99433.61
2022-10-16T11:28:16.815Z,99430.02
2022-10-16T11:31:32.996Z,99428.80
2022-10-16T11:34:46.987Z,99429.36
2022-10-16T11:37:55.791Z,99427.52
2022-10-16T11:41:06.075Z,99430.23
2022-10-16T11:44:36.034Z,99426.58
2022-10-16T11:47:58.922Z,99424.41
2022-10-16T11:51:13.900Z,99427.30
2022-10-16T11:54:25.191Z,99432.45
2022-10-16T11:57:34.603Z,99431.84
2022-10-16T12:00:48.280Z,99428.83
2022-10-16T12:04:06.628Z,99426.58
2022-10-16T12:07:17.309Z,99423.97
2022-10-16T12:10:27.757Z,99421.11
2022-10-16T12:13:36.528Z,99423.02
2022-10-16T12:16:53.091Z,99421.45
2022-10-16T12:20:25.152Z,99423.86
2022-10-16T12:23:31.494Z,99429.59
2022-10-16T12:26:40.654Z,99436.09
2022-10-16T12:29:48.361Z,99437.41
2022-10-16T12:33:01.077Z,99441.70
2022-10-16T12:36:12.592Z,99441.27
2022-10-16T12:39:25.790Z,99440.45
2022-10-16T12:42:38.256Z,99442.02
2022-10-16T12:45:45.756Z,99444.55
2022-10-16T12:49:08.476Z,99445.08
2022-10-16T12:52:30.283Z,99444.05
2022-10-16T12:55:51.396Z,99447.83
2022-10-16T12:59:09.618Z,99450.23
2022-10-16T13:02:52.647Z,99445.91
2022-10-16T13:06:16.366Z,99446.91
2022-10-16T13:09:39.722Z,99444.78
2022-10-16T13:13:08.415Z,99443.80
2022-10-16T13:16:23.822Z,99444.13
2022-10-16T13:19:36.916Z,99446.40
2022-10-16T13:22:55.306Z,99447.65
2022-10-16T13:26:19.342Z,99450.05
2022-10-16T13:29:31.959Z,99450.23
2022-10-16T13:32:38.532Z,99446.25
2022-10-16T13:35:52.601Z,99453.42
2022-10-16T13:39:15.873Z,99457.77
2022-10-16T13:42:28.327Z,99461.33
2022-10-16T13:45:34.635Z,99464.90
2022-10-16T13:48:41.016Z,99465.13
2022-10-16T13:51:58.782Z,99462.01
2022-10-16T13:55:05.180Z,99464.88
2022-10-16T13:58:15.741Z,99471.20
2022-10-16T14:01:29.993Z,99475.13
2022-10-16T14:04:43.449Z,99472.70
2022-10-16T14:07:53.939Z,99476.52
2022-10-16T14:11:02.461Z,99479.96
2022-10-16T14:14:13.014Z,99482.39
2022-10-16T14:17:21.232Z,99484.91
2022-10-16T14:20:32.091Z,99485.48
2022-10-16T14:23:40.892Z,99486.70
2022-10-16T14:26:51.105Z,99491.34
2022-10-16T14:30:18.020Z,99490.64
2022-10-16T14:33:34.401Z,99496.84
2022-10-16T14:36:43.198Z,99498.39
2022-10-16T14:39:53.324Z,99496.57
2022-10-16T14:43:00.107Z,99499.41
2022-10-16T14:46:12.047Z,99499.51
2022-10-16T14:49:23.076Z,99502.45
2022-10-16T14:52:29.454Z,99505.42
2022-10-16T14:55:35.506Z,99507.33
2022-10-16T14:58:41.635Z,99503.90
2022-10-16T15:01:48.604Z,99498.05
2022-10-16T15:04:55.072Z,99497.60
2022-10-16T15:08:01.299Z,99498.04
2022-10-16T15:11:10.527Z,99495.88
2022-10-16T15:14:17.069Z,99489.28
2022-10-16T15:17:23.099Z,99480.24
2022-10-16T15:20:31.260Z,99480.27
2022-10-16T15:23:37.425Z,99478.16
2022-10-16T15:26:44.099Z,99485.09
2022-10-16T15:29:50.240Z,99490.80
2022-10-16T15:32:56.524Z,99500.24
2022-10-16T15:36:02.620Z,99503.48
2022-10-16T15:39:14.591Z,99499.46
2022-10-16T15:42:20.757Z,99499.57
2022-10-16T15:45:26.921Z,99510.02
2022-10-16T15:48:34.234Z,99513.48
2022-10-16T15:51:42.667Z,99522.77
2022-10-16T15:54:53.379Z,99527.91
2022-10-16T15:58:00.543Z,99534.64
2022-10-16T16:01:07.770Z,99539.39
2022-10-16T16:04:31.893Z,99544.89
2022-10-16T16:07:41.107Z,99542.83
2022-10-16T16:10:47.252Z,99540.27
2022-10-16T16:13:53.224Z,99544.59
2022-10-16T16:16:57.866Z,99549.98
2022-10-16T16:20:05.596Z,99548.91
2022-10-16T16:23:11.812Z,99557.47
2022-10-16T16:26:25.142Z,99567.00
2022-10-16T16:29:31.188Z,99569.10
2022-10-16T16:32:35.759Z,99570.39
2022-10-16T16:35:41.861Z,99575.37
2022-10-16T16:38:48.365Z,99579.80
2022-10-16T16:41:54.811Z,99586.27
2022-10-16T16:45:01.429Z,99585.86
2022-10-16T16:48:08.220Z,99577.48
2022-10-16T16:51:17.314Z,99578.72
2022-10-16T16:54:23.552Z,99587.16
2022-10-16T16:57:30.254Z,99592.92
2022-10-16T17:00:36.644Z,99597.73
2022-10-16T17:03:46.515Z,99601.64
2022-10-16T17:06:54.451Z,99609.95
2022-10-16T17:10:00.541Z,99613.68
2022-10-16T17:13:06.578Z,99617.30
2022-10-16T17:16:11.163Z,99620.04
2022-10-16T17:19:19.469Z,99624.80
2022-10-16T17:22:25.908Z,99626.61
2022-10-16T17:25:34.113Z,99625.06
2022-10-16T17:28:40.536Z,99625.94
2022-10-16T17:31:49.902Z,99637.52
2022-10-16T17:34:56.082Z,99641.40
2022-10-16T17:38:02.123Z,99636.70
2022-10-16T17:41:16.643Z,99632.04
2022-10-16T17:44:22.920Z,99631.33
2022-10-16T17:47:29.068Z,99637.10
2022-10-16T17:50:35.225Z,99639.02
2022-10-16T17:53:42.514Z,99637.59
2022-10-16T17:56:49.074Z,99639.23
2022-10-16T17:59:57.299Z,99638.02
2022-10-16T18:03:03.468Z,99639.52
2022-10-16T18:06:09.980Z,99641.02
2022-10-16T18:09:18.954Z,99642.51
2022-10-16T18:12:25.238Z,99648.21
2022-10-16T18:15:31.567Z,99664.74
2022-10-16T18:18:37.790Z,99670.61
2022-10-16T18:21:43.993Z,99676.21
2022-10-16T18:24:50.143Z,99675.11
2022-10-16T18:27:56.255Z,99675.11
2022-10-16T18:31:01.907Z,99674.73
2022-10-16T18:34:06.689Z,99678.80
2022-10-16T18:37:14.311Z,99678.73
2022-10-16T18:40:20.831Z,99677.34
2022-10-16T18:43:27.348Z,99678.02
2022-10-16T18:46:34.367Z,99686.33
2022-10-16T18:49:40.788Z,99692.91
2022-10-16T18:52:52.121Z,99695.98
2022-10-16T18:55:58.243Z,99698.95
2022-10-16T18:59:04.149Z,99699.10
2022-10-16T19:02:10.319Z,99706.45
2022-10-16T19:05:16.454Z,99717.31
2022-10-16T19:08:22.634Z,99726.36
2022-10-16T19:11:29.817Z,99728.39
2022-10-16T19:14:37.056Z,99733.19
2022-10-16T19:17:43.140Z,99740.51
2022-10-16T19:20:47.516Z,99749.04
2022-10-16T19:23:56.804Z,99752.13
2022-10-16T19:27:02.804Z,99760.39
2022-10-16T19:30:08.511Z,99762.59
2022-10-16T19:33:13.282Z,99764.48
2022-10-16T19:36:23.404Z,99766.29
2022-10-16T19:39:29.615Z,99772.87
2022-10-16T19:42:36.332Z,99773.02
2022-10-16T19:45:42.407Z,99775.15
2022-10-16T19:48:48.484Z,99779.08
2022-10-16T19:51:54.869Z,99781.09
2022-10-16T19:55:01.050Z,99784.08
2022-10-16T19:58:07.210Z,99784.88
2022-10-16T20:01:14.303Z,99789.09
2022-10-16T20:04:20.445Z,99789.38
2022-10-16T20:07:25.370Z,99795.03
2022-10-16T20:10:31.646Z,99794.94
2022-10-16T20:13:39.827Z,99800.96
2022-10-16T20:16:48.455Z,99798.38
2022-10-16T20:19:52.912Z,99799.08
2022-10-16T20:22:59.052Z,99799.41
2022-10-16T20:26:04.327Z,99801.94
2022-10-16T20:29:10.716Z,99808.82
2022-10-16T20:32:17.128Z,99812.57
2022-10-16T20:35:23.120Z,99814.46
2022-10-16T20:38:29.243Z,99815.45
2022-10-16T20:41:33.722Z,99819.61
2022-10-16T20:44:40.039Z,99821.39
2022-10-16T20:47:46.284Z,99825.09
2022-10-16T20:50:52.392Z,99830.48
2022-10-16T20:53:57.726Z,99836.92
2022-10-16T20:57:03.902Z,99838.39
2022-10-16T21:00:10.004Z,99840.90
2022-10-16T21:03:16.111Z,99841.70
2022-10-16T21:06:20.555Z,99843.23
2022-10-16T21:09:26.707Z,99839.83
2022-10-16T21:12:31.246Z,99841.30
2022-10-16T21:15:38.036Z,99841.60
2022-10-16T21:18:45.088Z,99846.37
2022-10-16T21:21:53.012Z,99855.90
2022-10-16T21:24:59.279Z,99859.16
2022-10-16T21:28:05.520Z,99854.18
2022-10-16T21:31:20.025Z,99855.88
2022-10-16T21:34:26.585Z,99858.27
2022-10-16T21:37:33.262Z,99864.15
2022-10-16T21:40:39.450Z,99867.01
2022-10-16T21:43:44.245Z,99870.22
2022-10-16T21:46:51.783Z,99878.01
2022-10-16T21:49:57.860Z,99875.32
2022-10-16T21:53:02.347Z,99879.52
2022-10-16T21:56:13.839Z,99883.69
2022-10-16T21:59:20.227Z,99884.38
2022-10-16T22:02:26.323Z,99888.91
2022-10-16T22:05:30.783Z,99892.48
2022-10-16T22:08:38.343Z,99894.30
2022-10-16T22:11:46.290Z,99893.73
2022-10-16T22:14:52.536Z,99897.87
2022-10-16T22:17:58.887Z,99901.52
2022-10-16T22:21:06.772Z,99903.80
2022-10-16T22:24:13.283Z,99907.39
2022-10-16T22:27:19.501Z,99909.71
2022-10-16T22:30:23.999Z,99911.86
2022-10-16T22:33:30.358Z,99914.45
2022-10-16T22:36:36.991Z,99913.65
2022-10-16T22:39:43.168Z,99914.35
2022-10-16T22:45:54.531Z,99911.05
2022-10-16T22:49:01.057Z,99911.92
2022-10-16T22:52:07.529Z,99916.50
2022-10-16T22:55:14.102Z,99917.25
2022-10-16T22:58:20.484Z,99918.65
2022-10-16T23:01:28.957Z,99916.15
2022-10-16T23:04:36.078Z,99915.38
2022-10-16T23:07:42.145Z,99913.61
2022-10-16T23:10:49.765Z,99914.85
2022-10-16T23:13:56.686Z,99919.04
2022-10-16T23:17:02.780Z,99918.98
2022-10-16T23:20:10.184Z,99918.30
2022-10-16T23:23:16.311Z,99930.02
2022-10-16T23:26:22.208Z,99931.77
2022-10-16T23:29:26.738Z,99932.25
2022-10-16T23:32:32.832Z,99936.03
2022-10-16T23:35:42.352Z,99935.52
2022-10-16T23:38:48.719Z,99935.66
2022-10-16T23:41:54.822Z,99938.22
2022-10-16T23:45:01.123Z,99941.09
2022-10-16T23:48:07.358Z,99941.05
2022-10-16T23:51:12.037Z,99942.84
2022-10-16T23:54:18.211Z,99942.87
2022-10-16T23:57:22.724Z,99946.70
